This is the latest recevied weather packets stored in our database for station/object OM1PU-6. If no packets are shown the sender has not sent any weather packets the latest 10 day(s).
| Time | Temp. | Humidity | Pressure | Rain* | Wind** | Luminosity | Snow |
|---|---|---|---|---|---|---|---|
| 1788162958 | 27.78° C | 50% | 1011.1 hPa | 0 mm | - | - | - |
| 1788162058 | 27.22° C | 54% | 1011.4 hPa | 0 mm | - | - | - |
| 1788161157 | 25.56° C | 55% | 1011.3 hPa | 0 mm | - | - | - |
| 1788160258 | 26.11° C | 54% | 1011.2 hPa | 0 mm | - | - | - |
| 1788159357 | 23.89° C | 58% | 1011.4 hPa | 0 mm | - | - | - |
| 1788158457 | 21.67° C | 63% | 1011.3 hPa | 0 mm | - | - | - |
| 1788157557 | 21.67° C | 64% | 1011.5 hPa | 0 mm | - | - | - |
| 1788156658 | 20.56° C | 66% | 1011.4 hPa | 0 mm | - | - | - |
| 1788155758 | 20.56° C | 66% | 1011.4 hPa | 0 mm | - | - | - |
| 1788154857 | 20° C | 68% | 1011.2 hPa | 0 mm | - | - | - |
| 1788153957 | 19.44° C | 71% | 1011.4 hPa | 0 mm | - | - | - |
| 1788153057 | 18.33° C | 74% | 1011.2 hPa | 0 mm | - | - | - |
| 1788152157 | 17.22° C | 78% | 1010.9 hPa | 0 mm | - | - | - |
| 1788151257 | 16.67° C | 80% | 1011.1 hPa | 0 mm | - | - | - |
| 1788150357 | 16.67° C | 81% | 1011.1 hPa | 0 mm | - | - | - |
| 1788149457 | 16.11° C | 82% | 1011.3 hPa | 0 mm | - | - | - |
| 1788148557 | 16.67° C | 81% | 1010.8 hPa | 0 mm | - | - | - |
| 1788147657 | 16.67° C | 81% | 1011 hPa | 0 mm | - | - | - |
| 1788146757 | 16.67° C | 80% | 1010.9 hPa | 0 mm | - | - | - |
| 1788145857 | 16.67° C | 79% | 1010.8 hPa | 0 mm | - | - | - |
| 1788144957 | 16.67° C | 79% | 1010.7 hPa | 0 mm | - | - | - |
| 1788144058 | 17.22° C | 78% | 1011.1 hPa | 0 mm | - | - | - |
| 1788143157 | 17.22° C | 77% | 1010.9 hPa | 0 mm | - | - | - |
| 1788142257 | 17.78° C | 75% | 1011.2 hPa | 0 mm | - | - | - |
| 1788141357 | 17.78° C | 75% | 1011.5 hPa | 0 mm | - | - | - |
* Rain latest 24 hours (hover to see other rain measurements)
** Current wind speed in m/s (hover to see current wind gust speed)